Time;durP1;ratioP1;P1;durP2;ratioP2;P2;SDS_P1;SDS_P2;PMS_P1;PMS_P2;Temp;Humidity;BMP_temperature;BMP_pressure;BME280_temperature;BME280_humidity;BME280_pressure;Samples;Min_cycle;Max_cycle;Signal;HPM_P1;HPM_P2
2024/03/12 00:01:39;;;;;;;26.50;14.60;;;;;;;5.28;81.91;100992.27;105025;1257;138723;-65
2024/03/12 00:04:09;;;;;;;27.60;15.20;;;;;;;5.27;81.88;100988.77;104972;1261;73713;-66
2024/03/12 00:06:36;;;;;;;32.00;16.80;;;;;;;5.27;82.01;100992.41;104937;1254;61292;-66
2024/03/12 00:09:06;;;;;;;25.20;16.40;;;;;;;5.26;81.88;100993.91;109012;1254;138568;-67
2024/03/12 00:11:33;;;;;;;29.00;17.60;;;;;;;5.25;81.85;100994.56;109114;1254;72591;-66
2024/03/12 00:13:59;;;;;;;32.10;17.50;;;;;;;5.24;81.85;100994.87;109097;1254;138812;-67
2024/03/12 00:16:26;;;;;;;35.40;17.80;;;;;;;5.25;81.85;100995.27;109172;1254;71448;-66
2024/03/12 00:18:56;;;;;;;28.20;16.40;;;;;;;5.27;81.86;100991.52;109116;1254;59498;-67
2024/03/12 00:21:22;;;;;;;29.10;15.40;;;;;;;5.30;81.89;100991.86;109072;1254;138570;-66
2024/03/12 00:23:49;;;;;;;26.50;16.20;;;;;;;5.33;81.90;100992.68;106461;1254;73462;-65
2024/03/12 00:26:17;;;;;;;29.70;15.80;;;;;;;5.36;81.90;100991.44;104904;1257;139149;-65
2024/03/12 00:28:46;;;;;;;25.80;14.00;;;;;;;5.37;81.85;100988.90;104956;1254;71520;-64
2024/03/12 00:31:13;;;;;;;27.80;14.70;;;;;;;5.38;81.79;100988.06;108266;1254;61269;-65
2024/03/12 00:33:42;;;;;;;21.50;15.00;;;;;;;5.39;81.83;100986.38;104831;1255;138684;-65
2024/03/12 00:36:12;;;;;;;27.60;17.50;;;;;;;5.41;81.84;100982.46;105038;1254;74785;-65
2024/03/12 00:38:38;;;;;;;31.30;19.30;;;;;;;5.40;81.66;100981.91;104914;1255;138175;-67
2024/03/12 00:41:05;;;;;;;43.10;21.30;;;;;;;5.39;81.80;100974.19;104902;1254;73577;-65
2024/03/12 00:43:32;;;;;;;38.10;20.40;;;;;;;5.38;81.78;100972.24;104800;1255;139188;-66
2024/03/12 00:46:01;;;;;;;41.50;19.90;;;;;;;5.37;81.74;100967.70;104991;1260;61311;-66
2024/03/12 00:48:28;;;;;;;37.30;18.80;;;;;;;5.36;81.72;100964.48;105020;1254;75246;-65
2024/03/12 00:50:55;;;;;;;35.50;17.90;;;;;;;5.35;81.82;100966.66;104933;1254;137834;-64
2024/03/12 00:53:22;;;;;;;36.20;17.60;;;;;;;5.33;81.85;100965.75;104873;1254;73553;-65
2024/03/12 00:55:48;;;;;;;31.40;17.70;;;;;;;5.31;81.75;100967.86;104819;1257;139303;-65
2024/03/12 00:58:19;;;;;;;31.00;15.90;;;;;;;5.28;81.76;100969.30;104891;1256;61372;-67
2024/03/12 01:00:48;;;;;;;32.30;16.10;;;;;;;5.24;81.70;100970.02;105003;1258;75179;-67
2024/03/12 01:03:17;;;;;;;26.70;15.40;;;;;;;5.22;81.85;100970.95;104944;1255;138645;-67
2024/03/12 01:05:43;;;;;;;27.10;15.20;;;;;;;5.23;81.87;100969.95;108805;1254;72934;-67
2024/03/12 01:08:11;;;;;;;25.90;14.80;;;;;;;5.27;81.97;100966.99;104944;1256;138930;-67
2024/03/12 01:10:39;;;;;;;25.70;14.20;;;;;;;5.29;81.94;100966.39;109045;1254;60307;-67
2024/03/12 01:13:05;;;;;;;29.90;15.20;;;;;;;5.29;81.96;100963.61;106937;1257;73441;-67
2024/03/12 01:15:32;;;;;;;21.00;13.50;;;;;;;5.32;81.94;100963.07;104941;1259;138686;-66
2024/03/12 01:17:59;;;;;;;20.20;13.60;;;;;;;5.35;81.87;100961.98;105095;1254;73739;-65
2024/03/12 01:20:26;;;;;;;24.00;13.70;;;;;;;5.36;81.78;100963.29;104946;1254;138990;-65
2024/03/12 01:22:54;;;;;;;20.00;13.10;;;;;;;5.37;81.80;100963.83;104903;1254;61250;-65
2024/03/12 01:25:21;;;;;;;22.50;13.90;;;;;;;5.37;81.75;100967.16;104799;1257;75145;-66
2024/03/12 01:27:48;;;;;;;23.00;14.00;;;;;;;5.39;81.78;100964.80;104881;1254;138383;-66
2024/03/12 01:30:16;;;;;;;19.50;13.30;;;;;;;5.39;81.77;100963.08;104846;1256;73751;-66
2024/03/12 01:32:44;;;;;;;21.00;14.10;;;;;;;5.39;81.68;100962.38;104809;1257;138306;-65
2024/03/12 01:35:15;;;;;;;20.70;13.70;;;;;;;5.39;81.68;100964.11;106676;1259;61274;-65
2024/03/12 01:37:43;;;;;;;22.70;14.50;;;;;;;5.38;81.70;100962.17;104856;1254;138468;-65
2024/03/12 01:40:19;;;;;;;22.30;13.60;;;;;;;5.37;81.71;100961.59;104905;1259;66979;-66
2024/03/12 01:42:54;;;;;;;21.90;14.10;;;;;;;5.35;81.60;100960.43;105405;1260;73078;-65
2024/03/12 01:45:22;;;;;;;;;;;;;;;5.31;81.56;100961.07;109075;1254;138995;-66
2024/03/12 01:47:54;;;;;;;22.00;13.50;;;;;;;5.29;81.66;100962.71;105702;1253;61338;-66
2024/03/12 01:50:21;;;;;;;19.50;13.00;;;;;;;5.30;81.73;100959.11;104824;1254;139450;-67
2024/03/12 01:52:50;;;;;;;19.20;12.80;;;;;;;5.30;81.83;100961.23;108429;1254;64873;-65
2024/03/12 01:55:18;;;;;;;20.50;14.10;;;;;;;5.31;81.78;100962.48;104929;1254;73247;-67
2024/03/12 01:57:45;;;;;;;20.30;13.00;;;;;;;5.29;81.71;100961.67;104779;1259;138807;-66
2024/03/12 02:00:17;;;;;;;22.60;13.90;;;;;;;5.29;81.76;100961.35;108650;1254;59981;-67
2024/03/12 02:02:52;;;;;;;20.80;13.10;;;;;;;5.29;81.73;100959.10;108946;1254;139076;-67
2024/03/12 02:05:19;;;;;;;19.80;13.10;;;;;;;5.31;81.82;100958.69;109096;1254;65085;-64
2024/03/12 02:07:48;;;;;;;19.50;14.00;;;;;;;5.31;81.69;100957.95;108995;1255;138624;-65
2024/03/12 02:10:14;;;;;;;25.80;14.40;;;;;;;5.30;81.65;100956.88;109052;1254;59123;-65
2024/03/12 02:12:47;;;;;;;20.90;13.50;;;;;;;5.31;81.62;100954.50;109154;1254;60032;-65
2024/03/12 02:15:18;;;;;;;25.90;14.30;;;;;;;5.32;81.61;100956.81;105153;1259;138572;-65
2024/03/12 02:17:45;;;;;;;25.90;14.90;;;;;;;5.33;81.62;100953.20;109072;1254;64917;-65
2024/03/12 02:20:12;;;;;;;24.20;14.70;;;;;;;5.35;81.63;100952.26;108972;1254;139004;-65
2024/03/12 02:22:40;;;;;;;24.40;14.40;;;;;;;5.39;81.71;100951.27;108898;1254;59315;-65
2024/03/12 02:25:09;;;;;;;21.60;13.60;;;;;;;5.42;81.70;100949.66;109152;1254;60399;-66
2024/03/12 02:27:37;;;;;;;25.70;15.60;;;;;;;5.44;81.62;100947.47;105117;1254;138562;-65
2024/03/12 02:30:04;;;;;;;23.60;15.40;;;;;;;5.47;81.70;100950.55;109136;1254;65979;-65
2024/03/12 02:32:32;;;;;;;25.90;15.20;;;;;;;5.48;81.71;100949.23;109036;1254;138701;-65
2024/03/12 02:34:59;;;;;;;22.30;14.90;;;;;;;5.50;81.71;100948.27;109117;1254;59272;-66
2024/03/12 02:37:25;;;;;;;21.10;12.90;;;;;;;5.50;81.50;100945.65;109103;1254;60130;-65
2024/03/12 02:39:52;;;;;;;21.20;13.50;;;;;;;5.49;81.53;100947.52;105403;1254;139779;-65
2024/03/12 02:42:19;;;;;;;20.60;13.50;;;;;;;5.48;81.49;100948.03;104896;1257;67567;-65
2024/03/12 02:44:46;;;;;;;21.70;13.70;;;;;;;5.49;81.48;100949.42;105113;1259;138651;-66
2024/03/12 02:47:12;;;;;;;27.90;14.80;;;;;;;5.47;81.50;100949.71;105031;1259;61281;-65
2024/03/12 02:49:39;;;;;;;20.40;13.30;;;;;;;5.44;81.46;100951.99;104955;1255;138356;-65
2024/03/12 02:52:06;;;;;;;21.10;14.60;;;;;;;5.42;81.55;100950.66;104966;1254;75248;-66
2024/03/12 02:54:33;;;;;;;25.70;14.70;;;;;;;5.41;81.60;100953.58;104947;1254;65373;-64
2024/03/12 02:57:00;;;;;;;19.30;13.70;;;;;;;5.39;81.61;100953.86;104817;1254;138329;-65
2024/03/12 02:59:27;;;;;;;22.30;14.30;;;;;;;5.40;81.68;100952.83;104959;1257;61234;-64
2024/03/12 03:01:57;;;;;;;18.20;14.00;;;;;;;5.40;81.78;100952.14;104929;1257;139642;-64
2024/03/12 03:04:24;;;;;;;24.70;13.90;;;;;;;5.37;81.63;100949.05;104933;1259;75459;-64
2024/03/12 03:06:57;;;;;;;21.20;14.80;;;;;;;5.34;81.61;100950.28;109175;1255;66539;-64
2024/03/12 03:09:25;;;;;;;20.90;14.00;;;;;;;5.34;81.72;100948.20;108942;1255;138942;-65
2024/03/12 03:11:52;;;;;;;19.70;13.10;;;;;;;5.35;81.71;100945.64;109137;1254;58950;-65
2024/03/12 03:14:20;;;;;;;21.10;13.90;;;;;;;5.34;81.64;100945.96;109048;1254;138712;-65
2024/03/12 03:16:48;;;;;;;26.90;14.70;;;;;;;5.36;81.79;100945.69;105453;1254;74767;-65
2024/03/12 03:19:15;;;;;;;22.40;14.00;;;;;;;5.39;81.74;100944.77;109183;1254;66439;-65
2024/03/12 03:21:41;;;;;;;22.60;14.00;;;;;;;5.40;81.81;100941.89;109000;1254;139117;-66
2024/03/12 03:24:08;;;;;;;22.90;14.00;;;;;;;5.41;81.68;100944.38;109131;1254;59576;-67
2024/03/12 03:26:34;;;;;;;21.90;14.10;;;;;;;5.42;81.72;100944.59;109005;1253;139506;-67
2024/03/12 03:29:01;;;;;;;27.00;14.80;;;;;;;5.44;81.79;100943.98;109160;1254;74392;-67
2024/03/12 03:31:29;;;;;;;22.00;14.70;;;;;;;5.46;81.71;100944.10;109064;1253;65222;-67
2024/03/12 03:33:58;;;;;;;23.30;14.40;;;;;;;5.48;81.65;100941.76;108977;1254;138343;-67
2024/03/12 03:36:27;;;;;;;19.60;12.60;;;;;;;5.49;81.69;100940.59;109160;1255;59360;-67
2024/03/12 03:38:54;;;;;;;20.70;13.80;;;;;;;5.51;81.59;100940.66;105832;1254;138805;-67
2024/03/12 03:41:21;;;;;;;24.70;12.90;;;;;;;5.52;81.57;100944.71;104949;1256;74424;-66
2024/03/12 03:43:48;;;;;;;17.30;12.50;;;;;;;5.52;81.48;100949.23;104913;1254;138013;-65
2024/03/12 03:46:15;;;;;;;19.90;13.60;;;;;;;5.50;81.50;100951.08;104901;1260;70684;-65
2024/03/12 03:48:42;;;;;;;22.60;13.20;;;;;;;5.50;81.63;100949.48;104974;1254;62228;-65
2024/03/12 03:51:10;;;;;;;20.40;12.60;;;;;;;5.51;81.63;100956.66;104899;1257;138229;-65
2024/03/12 03:53:36;;;;;;;20.70;13.40;;;;;;;5.47;81.50;100950.41;104891;1254;75671;-69
2024/03/12 03:56:03;;;;;;;19.90;13.50;;;;;;;5.44;81.58;100948.88;104783;1254;139179;-68
2024/03/12 03:58:30;;;;;;;19.20;12.60;;;;;;;5.42;81.59;100948.58;104957;1257;72844;-64
2024/03/12 04:00:57;;;;;;;17.40;12.20;;;;;;;5.40;81.61;100947.63;105047;1258;62777;-64
2024/03/12 04:03:25;;;;;;;18.50;12.70;;;;;;;5.39;81.59;100947.40;104941;1254;138755;-63
2024/03/12 04:05:52;;;;;;;24.60;13.40;;;;;;;5.38;81.72;100945.77;105004;1254;75258;-64
2024/03/12 04:08:18;;;;;;;18.60;13.00;;;;;;;5.38;81.83;100941.95;104907;1258;138839;-64
2024/03/12 04:10:46;;;;;;;19.80;12.90;;;;;;;5.40;81.83;100944.13;104825;1254;73120;-64
2024/03/12 04:13:14;;;;;;;21.10;13.70;;;;;;;5.39;81.78;100940.06;108720;1254;61268;-65
2024/03/12 04:15:41;;;;;;;20.30;14.40;;;;;;;5.39;81.84;100942.34;104860;1260;138843;-64
2024/03/12 04:18:08;;;;;;;23.40;13.60;;;;;;;5.39;81.86;100941.12;104853;1254;74767;-64
2024/03/12 04:20:35;;;;;;;20.10;13.40;;;;;;;5.39;81.85;100940.80;104579;1260;140563;-64
2024/03/12 04:23:01;;;;;;;21.70;13.60;;;;;;;5.39;81.90;100937.52;104983;1255;73248;-64
2024/03/12 04:25:28;;;;;;;22.90;14.50;;;;;;;5.39;81.88;100938.52;104990;1254;61354;-65
2024/03/12 04:27:55;;;;;;;20.70;14.30;;;;;;;5.38;81.87;100940.55;109011;1254;138473;-65
2024/03/12 04:30:22;;;;;;;21.20;14.40;;;;;;;5.38;81.88;100939.68;109148;1254;74786;-65
2024/03/12 04:32:49;;;;;;;21.10;13.60;;;;;;;5.39;81.96;100939.92;109005;1254;140002;-65
2024/03/12 04:35:15;;;;;;;23.40;13.80;;;;;;;5.40;81.97;100942.40;106451;1258;71177;-65
2024/03/12 04:37:42;;;;;;;21.40;13.90;;;;;;;5.41;82.01;100944.90;104863;1254;138891;-65
2024/03/12 04:40:11;;;;;;;21.00;13.20;;;;;;;5.42;81.99;100943.37;104922;1254;61224;-65
2024/03/12 04:42:37;;;;;;;21.50;14.10;;;;;;;5.44;82.11;100941.55;107764;1254;74709;-66
2024/03/12 04:45:05;;;;;;;23.00;13.80;;;;;;;5.45;82.09;100944.73;104912;1257;138305;-64
2024/03/12 04:47:33;;;;;;;21.00;13.10;;;;;;;5.44;81.95;100943.83;106167;1256;72304;-64
2024/03/12 04:50:00;;;;;;;18.70;12.90;;;;;;;5.41;81.94;100945.41;104947;1256;138180;-64
2024/03/12 04:52:26;;;;;;;20.00;13.70;;;;;;;5.37;82.03;100946.08;104767;1254;61286;-65
2024/03/12 04:54:53;;;;;;;24.20;14.20;;;;;;;5.36;82.10;100948.31;104917;1256;74696;-64
2024/03/12 04:57:20;;;;;;;22.90;13.60;;;;;;;5.35;82.20;100949.63;104736;1254;137766;-63
2024/03/12 04:59:47;;;;;;;20.90;13.80;;;;;;;5.32;82.12;100948.45;105070;1256;71778;-64
2024/03/12 05:02:15;;;;;;;20.30;13.60;;;;;;;5.27;82.11;100948.23;104904;1254;139203;-65
2024/03/12 05:04:42;;;;;;;19.20;13.20;;;;;;;5.25;82.14;100956.31;105099;1257;61423;-64
2024/03/12 05:07:08;;;;;;;20.80;13.30;;;;;;;5.25;82.32;100956.99;105052;1254;75286;-65
2024/03/12 05:09:35;;;;;;;19.00;12.40;;;;;;;5.23;82.32;100960.72;104904;1254;139125;-66
2024/03/12 05:12:02;;;;;;;22.40;13.30;;;;;;;5.23;82.39;100962.45;104970;1256;73475;-66
2024/03/12 05:14:28;;;;;;;19.50;13.80;;;;;;;5.22;82.50;100958.94;104868;1258;139028;-65
2024/03/12 05:16:56;;;;;;;19.90;13.50;;;;;;;5.23;82.61;100963.51;105111;1258;60053;-64
2024/03/12 05:19:24;;;;;;;19.30;13.20;;;;;;;5.24;82.56;100963.52;104888;1255;74906;-64
2024/03/12 05:21:51;;;;;;;18.90;12.80;;;;;;;5.24;82.68;100959.40;104948;1259;138886;-67
2024/03/12 05:24:18;;;;;;;19.30;13.60;;;;;;;5.24;82.61;100960.45;104918;1256;73536;-65
2024/03/12 05:26:47;;;;;;;19.30;13.70;;;;;;;5.23;82.65;100961.95;104822;1255;138522;-65
2024/03/12 05:29:14;;;;;;;21.50;13.10;;;;;;;5.25;82.69;100958.58;109138;1254;59174;-65
2024/03/12 05:31:41;;;;;;;22.10;13.60;;;;;;;5.26;82.71;100958.78;108996;1255;139219;-65
2024/03/12 05:34:18;;;;;;;19.70;13.40;;;;;;;5.25;82.71;100959.76;109109;1255;64984;-65
2024/03/12 05:36:48;;;;;;;19.00;13.40;;;;;;;5.25;82.75;100959.79;109197;1254;72048;-65
2024/03/12 05:39:18;;;;;;;20.60;13.90;;;;;;;5.24;82.76;100958.86;108939;1254;139305;-66
2024/03/12 05:50:01;;;;;;;23.90;15.80;;;;;;;5.32;82.84;100965.50;106399;1258;139338;-63
2024/03/12 05:52:27;;;;;;;24.00;16.80;;;;;;;5.35;82.95;100964.75;105028;1258;61277;-62
2024/03/12 05:54:54;;;;;;;23.60;15.60;;;;;;;5.35;82.86;100969.79;105029;1257;62856;-64
2024/03/12 05:57:22;;;;;;;25.70;16.50;;;;;;;5.36;82.91;100969.53;104897;1258;139229;-63
2024/03/12 05:59:49;;;;;;;26.20;17.50;;;;;;;5.39;83.05;100972.63;104967;1258;66390;-63
2024/03/12 06:02:17;;;;;;;24.90;16.70;;;;;;;5.42;83.17;100973.52;104546;1254;138458;-64
2024/03/12 06:04:44;;;;;;;21.90;15.10;;;;;;;5.46;83.21;100972.98;105058;1254;61186;-64
2024/03/12 06:07:12;;;;;;;22.50;15.90;;;;;;;5.47;83.06;100978.06;105128;1258;61342;-65
2024/03/12 06:09:39;;;;;;;22.40;15.30;;;;;;;5.46;83.07;100979.05;104923;1257;138525;-66
2024/03/12 06:12:06;;;;;;;21.60;15.20;;;;;;;5.48;83.12;100982.30;104983;1257;65543;-66
2024/03/12 06:14:34;;;;;;;25.70;15.60;;;;;;;5.52;83.24;100982.66;108961;1254;138747;-64
2024/03/12 06:17:00;;;;;;;21.50;15.50;;;;;;;5.53;83.09;100980.61;109180;1254;59564;-65
2024/03/12 06:19:27;;;;;;;24.80;15.20;;;;;;;5.53;83.04;100984.98;105128;1257;61229;-63
2024/03/12 06:21:54;;;;;;;24.00;14.20;;;;;;;5.54;83.13;100986.09;104848;1258;139972;-62
2024/03/12 06:24:20;;;;;;;20.40;14.60;;;;;;;5.57;83.22;100982.40;104974;1256;64405;-65
2024/03/12 06:26:48;;;;;;;24.40;15.20;;;;;;;5.60;83.15;100982.89;107160;1254;138801;-66
2024/03/12 06:29:14;;;;;;;23.40;15.60;;;;;;;5.65;83.34;100984.69;109154;1254;58957;-66
2024/03/12 06:31:41;;;;;;;20.20;14.10;;;;;;;5.71;83.34;100985.33;109025;1254;138726;-66
2024/03/12 06:34:07;;;;;;;23.70;15.50;;;;;;;5.74;83.25;100985.65;109104;1254;74561;-66
2024/03/12 06:36:34;;;;;;;20.90;15.20;;;;;;;5.76;83.12;100987.14;109084;1254;65991;-66
2024/03/12 06:39:01;;;;;;;23.90;16.00;;;;;;;5.79;83.13;100986.59;108940;1255;139114;-66
2024/03/12 06:41:32;;;;;;;24.00;16.40;;;;;;;5.84;83.14;100988.91;109194;1254;59104;-66
2024/03/12 06:44:07;;;;;;;24.20;17.80;;;;;;;5.87;83.02;100990.63;108845;1254;139292;-66
2024/03/12 06:46:34;;;;;;;23.30;16.40;;;;;;;5.92;83.16;100985.45;107340;1258;74648;-65
2024/03/12 06:49:01;;;;;;;25.00;16.20;;;;;;;5.95;83.04;100990.67;105103;1256;64521;-66
2024/03/12 06:51:31;;;;;;;26.90;17.30;;;;;;;6.00;83.11;100987.96;104862;1255;138685;-66
2024/03/12 06:53:59;;;;;;;24.30;16.30;;;;;;;6.03;83.01;100988.29;104957;1258;61181;-66
2024/03/12 06:56:28;;;;;;;23.70;17.50;;;;;;;6.06;82.99;100988.42;104760;1255;138246;-65
2024/03/12 06:58:56;;;;;;;22.20;16.40;;;;;;;6.10;83.00;100991.70;104885;1254;75321;-65
2024/03/12 07:01:29;;;;;;;30.10;18.70;;;;;;;6.11;82.93;100989.71;105008;1254;64810;-65
2024/03/12 07:03:57;;;;;;;30.20;20.20;;;;;;;6.14;82.98;100994.54;104769;1255;138142;-66
2024/03/12 07:06:24;;;;;;;29.80;20.00;;;;;;;6.13;82.81;100993.80;104905;1259;61642;-65
2024/03/12 07:08:50;;;;;;;30.00;18.30;;;;;;;6.12;82.88;101001.42;104735;1255;138336;-65
2024/03/12 07:11:19;;;;;;;25.00;16.90;;;;;;;6.13;82.87;100999.52;105040;1255;75546;-66
2024/03/12 07:13:48;;;;;;;25.50;16.70;;;;;;;6.13;82.95;101006.54;104774;1260;139799;-66
2024/03/12 07:16:15;;;;;;;26.30;16.80;;;;;;;6.14;82.83;101004.63;105033;1258;71493;-66
2024/03/12 07:18:43;;;;;;;22.50;16.20;;;;;;;6.11;82.85;101004.83;104935;1255;61210;-66
2024/03/12 07:21:10;;;;;;;22.40;15.70;;;;;;;6.10;82.94;101003.21;106428;1255;139076;-67
2024/03/12 07:23:36;;;;;;;26.60;16.70;;;;;;;6.11;83.01;101005.20;104941;1256;75209;-67
2024/03/12 07:26:03;;;;;;;23.00;15.70;;;;;;;6.12;83.00;101000.91;104866;1258;138791;-66
2024/03/12 07:28:30;;;;;;;22.40;15.60;;;;;;;6.13;82.87;101001.11;105108;1258;71255;-66
2024/03/12 07:30:57;;;;;;;22.90;15.50;;;;;;;6.13;82.91;101002.51;105051;1254;61238;-66
2024/03/12 07:33:24;;;;;;;23.10;15.70;;;;;;;6.12;82.91;100999.14;104847;1255;139819;-66
2024/03/12 07:35:51;;;;;;;23.80;16.80;;;;;;;6.14;83.01;101000.84;105009;1256;73104;-66
2024/03/12 07:38:18;;;;;;;28.20;16.30;;;;;;;6.17;83.05;100998.34;104996;1258;139476;-66
2024/03/12 07:40:44;;;;;;;24.90;17.40;;;;;;;6.21;83.17;101000.63;104919;1254;71479;-67
2024/03/12 07:43:11;;;;;;;25.00;17.50;;;;;;;6.26;83.10;101001.17;105032;1258;61347;-66
2024/03/12 07:45:43;;;;;;;26.90;16.80;;;;;;;6.29;83.10;101001.71;104893;1256;138511;-67
2024/03/12 07:48:10;;;;;;;24.60;16.70;;;;;;;6.32;82.99;101002.36;105013;1258;74955;-66
2024/03/12 07:50:37;;;;;;;25.70;16.90;;;;;;;6.38;83.15;101001.40;104856;1258;138540;-67
2024/03/12 07:53:06;;;;;;;26.10;18.30;;;;;;;6.46;83.12;101000.38;104999;1258;73214;-67
2024/03/12 07:55:33;;;;;;;23.70;17.00;;;;;;;6.54;83.17;101002.81;105090;1254;61374;-67
2024/03/12 07:58:01;;;;;;;25.30;17.00;;;;;;;6.63;83.10;101006.20;104994;1258;61262;-66
2024/03/12 08:00:27;;;;;;;27.50;17.90;;;;;;;6.65;82.93;101000.34;104924;1255;75374;-66
2024/03/12 08:02:55;;;;;;;29.60;18.30;;;;;;;6.68;82.92;101006.05;105031;1257;137948;-67
2024/03/12 08:05:23;;;;;;;24.80;18.00;;;;;;;6.68;82.84;101009.40;105007;1256;73247;-67
2024/03/12 08:07:50;;;;;;;24.80;17.50;;;;;;;6.69;82.78;101008.90;104884;1255;137996;-67
2024/03/12 08:10:17;;;;;;;25.80;16.60;;;;;;;6.69;82.72;101012.74;105090;1257;61323;-67
2024/03/12 08:12:44;;;;;;;26.10;17.00;;;;;;;6.69;82.66;101007.33;105028;1258;75403;-67
2024/03/12 08:15:12;;;;;;;24.90;17.50;;;;;;;6.68;82.68;101010.92;104930;1258;139662;-67
2024/03/12 08:17:39;;;;;;;25.30;17.30;;;;;;;6.68;82.69;101015.98;104828;1258;257863;-67
2024/03/12 08:20:10;;;;;;;28.20;17.60;;;;;;;6.67;82.67;101013.18;104978;1257;139372;-67
2024/03/12 08:22:38;;;;;;;26.30;17.40;;;;;;;6.68;82.70;101015.15;104983;1254;61421;-67
2024/03/12 08:25:07;;;;;;;23.60;16.60;;;;;;;6.71;82.70;101016.30;104985;1256;75705;-67
2024/03/12 08:27:34;;;;;;;27.40;16.70;;;;;;;6.72;82.69;101020.89;109040;1254;138823;-66
2024/03/12 08:30:02;;;;;;;29.30;16.20;;;;;;;6.73;82.55;101023.20;105767;1255;73460;-66
2024/03/12 08:32:31;;;;;;;25.10;16.30;;;;;;;6.72;82.52;101020.92;108805;1254;139885;-66
2024/03/12 08:34:57;;;;;;;26.70;16.70;;;;;;;6.76;82.60;101025.45;104869;1254;61363;-66
2024/03/12 08:37:24;;;;;;;25.80;15.20;;;;;;;6.79;82.63;101026.30;104907;1258;75258;-65
2024/03/12 08:39:51;;;;;;;24.90;17.30;;;;;;;6.83;82.66;101026.45;104821;1256;138424;-65
2024/03/12 08:42:17;;;;;;;28.50;16.50;;;;;;;6.88;82.58;101026.64;104996;1258;71083;-65
2024/03/12 08:44:44;;;;;;;23.20;16.20;;;;;;;6.95;82.78;101026.98;104902;1258;138930;-66
2024/03/12 08:47:11;;;;;;;29.10;18.10;;;;;;;7.05;82.84;101028.46;104947;1258;62030;-66
2024/03/12 08:49:38;;;;;;;26.10;17.30;;;;;;;7.13;82.69;101025.47;104954;1254;138332;-66
2024/03/12 08:52:05;;;;;;;34.70;17.80;;;;;;;7.20;82.73;101026.13;105092;1258;66890;-66
2024/03/12 08:54:31;;;;;;;30.10;18.50;;;;;;;7.25;82.52;101028.44;104825;1260;70299;-66
2024/03/12 08:56:58;;;;;;;31.50;18.50;;;;;;;7.28;82.42;101028.20;104938;1256;137814;-66
2024/03/12 08:59:25;;;;;;;26.20;17.90;;;;;;;7.29;82.31;101030.54;104949;1254;61280;-66
2024/03/12 09:01:57;;;;;;;28.60;18.20;;;;;;;7.33;82.33;101028.97;104863;1256;138124;-66
2024/03/12 09:04:24;;;;;;;33.20;17.70;;;;;;;7.36;82.28;101032.05;104882;1260;66924;-67
2024/03/12 09:06:51;;;;;;;30.70;17.60;;;;;;;7.39;82.33;101036.73;104853;1257;71970;-67
2024/03/12 09:09:18;;;;;;;27.10;18.60;;;;;;;7.43;82.27;101034.59;104833;1255;138772;-66
2024/03/12 09:11:46;;;;;;;34.00;19.50;;;;;;;7.48;82.32;101035.02;104889;1260;61261;-66
2024/03/12 09:14:13;;;;;;;28.50;18.60;;;;;;;7.57;82.41;101035.36;104949;1256;138715;-67
2024/03/12 09:16:40;;;;;;;32.20;19.50;;;;;;;7.63;82.32;101035.79;105096;1266;65722;-67
2024/03/12 09:19:06;;;;;;;34.40;18.60;;;;;;;7.65;82.09;101036.90;104919;1257;73259;-67
2024/03/12 09:21:33;;;;;;;34.30;19.20;;;;;;;7.64;81.97;101036.88;104824;1254;138745;-67
2024/03/12 09:24:00;;;;;;;34.50;17.70;;;;;;;7.63;81.88;101038.06;109084;1255;59077;-67
2024/03/12 09:26:30;;;;;;;27.70;17.50;;;;;;;7.68;81.96;101035.29;108943;1254;138623;-67
2024/03/12 09:28:57;;;;;;;29.90;18.70;;;;;;;7.73;81.93;101038.66;109166;1254;64983;-67
2024/03/12 09:31:24;;;;;;;30.70;19.50;;;;;;;7.76;81.80;101037.58;109023;1254;73620;-67
2024/03/12 09:33:51;;;;;;;29.30;19.40;;;;;;;7.76;81.67;101039.34;108975;1254;137989;-67
2024/03/12 09:36:18;;;;;;;28.60;19.20;;;;;;;7.76;81.58;101039.13;109108;1256;60030;-67
2024/03/12 09:38:46;;;;;;;29.60;19.50;;;;;;;7.76;81.56;101038.10;109013;1254;138254;-67
2024/03/12 09:41:15;;;;;;;32.40;19.90;;;;;;;7.76;81.55;101040.88;109011;1254;66419;-67
2024/03/12 09:43:43;;;;;;;32.50;18.80;;;;;;;7.76;81.39;101040.86;108854;1254;138789;-67
2024/03/12 09:46:15;;;;;;;32.60;19.00;;;;;;;7.79;81.41;101041.88;107285;1258;61360;-67
2024/03/12 09:48:42;;;;;;;30.50;19.80;;;;;;;7.82;81.44;101038.69;104983;1255;61632;-66
2024/03/12 09:51:09;;;;;;;32.10;20.90;;;;;;;7.87;81.38;101042.02;106063;1256;139245;-67
2024/03/12 09:53:36;;;;;;;31.50;18.30;;;;;;;7.89;81.39;101045.41;104961;1256;67317;-67
2024/03/12 09:56:06;;;;;;;31.10;19.10;;;;;;;7.91;81.39;101044.62;104823;1258;138978;-66
2024/03/12 09:58:36;;;;;;;35.20;19.60;;;;;;;7.94;81.27;101043.69;109080;1254;59326;-67
2024/03/12 10:01:03;;;;;;;31.20;19.60;;;;;;;7.96;81.20;101041.85;106523;1261;61398;-68
2024/03/12 10:03:31;;;;;;;34.70;22.30;;;;;;;7.99;81.38;101046.69;104770;1258;139468;-65
2024/03/12 10:05:58;;;;;;;34.60;22.10;;;;;;;7.95;81.02;101045.32;108990;1254;65340;-66
2024/03/12 10:08:28;;;;;;;36.60;22.80;;;;;;;7.96;81.15;101046.41;108798;1256;139733;-67
2024/03/12 10:10:55;;;;;;;36.20;23.10;;;;;;;7.96;81.19;101049.04;109016;1256;58903;-66
2024/03/12 10:13:23;;;;;;;39.70;25.00;;;;;;;8.01;81.20;101047.48;109153;1254;59061;-66
2024/03/12 10:15:58;;;;;;;35.20;23.10;;;;;;;8.09;81.38;101047.27;108971;1254;138042;-66
2024/03/12 10:18:34;;;;;;;38.90;23.20;;;;;;;8.16;81.16;101046.66;109080;1255;67348;-66
2024/03/12 10:21:01;;;;;;;40.50;23.00;;;;;;;8.22;81.08;101046.72;105504;1255;139345;-66
2024/03/12 10:23:36;;;;;;;44.40;24.10;;;;;;;8.26;81.06;101045.64;109018;1256;59126;-67
2024/03/12 10:26:16;;;;;;;37.90;21.80;;;;;;;8.34;81.05;101047.02;108990;1255;139430;-67
2024/03/12 10:28:46;;;;;;;40.10;22.40;;;;;;;8.39;80.88;101047.73;109107;1256;73178;-66
2024/03/12 10:31:13;;;;;;;47.00;25.60;;;;;;;8.42;80.80;101050.14;107640;1255;65235;-67
2024/03/12 10:33:44;;;;;;;40.00;25.40;;;;;;;8.44;80.79;101052.86;104727;1256;139557;-67
2024/03/12 10:36:11;;;;;;;45.90;29.00;;;;;;;8.50;80.91;101047.65;104948;1256;61353;-67
2024/03/12 10:38:39;;;;;;;44.80;28.50;;;;;;;8.51;80.72;101053.30;104847;1258;137993;-67
2024/03/12 10:41:13;;;;;;;45.40;28.60;;;;;;;8.51;80.63;101055.05;104951;1258;74450;-67
2024/03/12 10:43:40;;;;;;;46.30;29.60;;;;;;;8.53;80.82;101052.32;104966;1258;138296;-66
2024/03/12 10:46:10;;;;;;;47.20;30.60;;;;;;;8.55;80.67;101049.77;105022;1258;73874;-66
2024/03/12 10:48:40;;;;;;;47.60;29.60;;;;;;;8.57;80.71;101050.90;104844;1256;61387;-66
2024/03/12 10:51:12;;;;;;;48.80;29.20;;;;;;;8.59;80.86;101048.89;105972;1262;138756;-67
2024/03/12 10:53:39;;;;;;;51.60;32.00;;;;;;;8.58;80.73;101044.80;105029;1254;75501;-66
2024/03/12 10:56:06;;;;;;;52.00;32.80;;;;;;;8.63;80.74;101043.96;108916;1255;139362;-67
2024/03/12 10:58:33;;;;;;;50.10;32.90;;;;;;;8.65;80.57;101042.80;108953;1256;71580;-66
2024/03/12 11:01:00;;;;;;;50.90;32.10;;;;;;;8.64;80.55;101036.65;109151;1253;59510;-66
2024/03/12 11:03:27;;;;;;;52.80;32.80;;;;;;;8.70;80.68;101043.53;108936;1255;138704;-66
2024/03/12 11:05:54;;;;;;;48.40;32.20;;;;;;;8.75;80.57;101044.75;109132;1255;74458;-66
2024/03/12 11:08:21;;;;;;;54.40;34.70;;;;;;;8.77;80.34;101045.00;108955;1256;139060;-67
2024/03/12 11:10:47;;;;;;;54.60;33.70;;;;;;;8.72;80.07;101045.88;109042;1254;72760;-67
2024/03/12 11:13:15;;;;;;;59.90;37.10;;;;;;;8.70;80.04;101042.80;108860;1254;59053;-66
2024/03/12 11:15:42;;;;;;;57.50;36.30;;;;;;;8.66;80.01;101044.43;104874;1255;138160;-66
2024/03/12 11:18:09;;;;;;;60.40;37.10;;;;;;;8.63;80.08;101047.96;107199;1259;75696;-67